Time;durP1;ratioP1;P1;durP2;ratioP2;P2;SDS_P1;SDS_P2;PMS_P1;PMS_P2;Temp;Humidity;BMP_temperature;BMP_pressure;BME280_temperature;BME280_humidity;BME280_pressure;Samples;Min_cycle;Max_cycle;Signal;HPM_P1;HPM_P2
2024/01/16 00:01:05;;;;;;;2.13;1.52;;;;;;;;;;4995383;28;20507;-68
2024/01/16 00:03:30;;;;;;;3.63;1.50;;;;;;;;;;4996670;28;20045;-68
2024/01/16 00:05:55;;;;;;;3.47;1.30;;;;;;;;;;4995957;28;20048;-68
2024/01/16 00:08:21;;;;;;;1.15;1.15;;;;;;;;;;4995453;28;20074;-68
2024/01/16 00:10:46;;;;;;;5.03;1.60;;;;;;;;;;4996552;28;20065;-66
2024/01/16 00:13:12;;;;;;;1.98;1.55;;;;;;;;;;4995910;28;20431;-67
2024/01/16 00:15:37;;;;;;;1.90;1.35;;;;;;;;;;4996432;28;20038;-69
2024/01/16 00:18:03;;;;;;;1.65;1.55;;;;;;;;;;4994796;28;20418;-69
2024/01/16 00:20:28;;;;;;;2.47;1.25;;;;;;;;;;4995667;28;20042;-69
2024/01/16 00:22:54;;;;;;;1.42;1.33;;;;;;;;;;4995905;28;20048;-69
2024/01/16 00:25:19;;;;;;;1.50;1.40;;;;;;;;;;4995218;28;20041;-69
2024/01/16 00:27:46;;;;;;;1.52;1.20;;;;;;;;;;4996021;28;20046;-70
2024/01/16 00:30:11;;;;;;;1.55;1.45;;;;;;;;;;4997296;28;20108;-67
2024/01/16 00:32:37;;;;;;;2.60;1.60;;;;;;;;;;4979172;28;20057;-68
2024/01/16 00:35:03;;;;;;;1.38;1.27;;;;;;;;;;4995286;28;20049;-67
2024/01/16 00:37:29;;;;;;;0.85;0.85;;;;;;;;;;4996028;28;20045;-67
2024/01/16 00:39:54;;;;;;;1.95;1.38;;;;;;;;;;4995563;28;20042;-67
2024/01/16 00:42:20;;;;;;;1.48;1.33;;;;;;;;;;4994562;28;20068;-70
2024/01/16 00:44:45;;;;;;;1.63;1.30;;;;;;;;;;4996284;28;20038;-67
2024/01/16 00:47:10;;;;;;;2.45;1.77;;;;;;;;;;4994968;28;20124;-67
2024/01/16 00:49:36;;;;;;;1.55;1.10;;;;;;;;;;4996451;28;20054;-67
2024/01/16 00:52:02;;;;;;;1.92;1.55;;;;;;;;;;4995737;28;20058;-67
2024/01/16 00:54:27;;;;;;;1.30;0.85;;;;;;;;;;4994907;28;20099;-67
2024/01/16 00:56:55;;;;;;;0.90;0.90;;;;;;;;;;4996120;28;20080;-67
2024/01/16 00:59:20;;;;;;;1.45;1.10;;;;;;;;;;4980098;28;20237;-67
2024/01/16 01:01:46;;;;;;;1.90;1.02;;;;;;;;;;4979482;28;20586;-67
2024/01/16 01:04:12;;;;;;;1.40;1.27;;;;;;;;;;4994291;28;20045;-67
2024/01/16 01:06:37;;;;;;;1.30;1.20;;;;;;;;;;4980023;28;20037;-67
2024/01/16 01:09:03;;;;;;;2.00;1.70;;;;;;;;;;4995308;28;20562;-67
2024/01/16 01:11:28;;;;;;;1.00;0.93;;;;;;;;;;4995321;28;20046;-67
2024/01/16 01:13:53;;;;;;;1.02;1.02;;;;;;;;;;4978057;28;20050;-67
2024/01/16 01:16:19;;;;;;;2.17;1.75;;;;;;;;;;4994762;28;20093;-67
2024/01/16 01:18:44;;;;;;;1.25;1.15;;;;;;;;;;4995551;28;20042;-67
2024/01/16 01:21:09;;;;;;;1.00;1.00;;;;;;;;;;4995706;28;20057;-67
2024/01/16 01:23:35;;;;;;;1.88;1.17;;;;;;;;;;4983178;28;20038;-67
2024/01/16 01:26:00;;;;;;;1.40;0.95;;;;;;;;;;4998103;28;20562;-67
2024/01/16 01:28:26;;;;;;;1.10;1.10;;;;;;;;;;4998436;28;20092;-66
2024/01/16 01:30:51;;;;;;;1.80;1.20;;;;;;;;;;4998765;28;21026;-67
2024/01/16 01:33:17;;;;;;;1.00;1.00;;;;;;;;;;4997071;28;20510;-67
2024/01/16 01:35:42;;;;;;;1.15;0.80;;;;;;;;;;4981381;28;20057;-67
2024/01/16 01:38:08;;;;;;;1.60;1.50;;;;;;;;;;4996204;28;20069;-67
2024/01/16 01:40:33;;;;;;;2.50;1.48;;;;;;;;;;4997460;28;20049;-65
2024/01/16 01:43:25;;;;;;;1.92;1.48;;;;;;;;;;4979934;28;20125;-67
2024/01/16 01:46:18;;;;;;;1.50;1.40;;;;;;;;;;4998063;28;20156;-67
2024/01/16 01:48:45;;;;;;;1.63;1.33;;;;;;;;;;4998735;28;21092;-67
2024/01/16 01:51:12;;;;;;;0.85;0.85;;;;;;;;;;4981590;28;20534;-66
2024/01/16 01:53:39;;;;;;;0.82;0.82;;;;;;;;;;4996782;28;20118;-67
2024/01/16 01:56:07;;;;;;;2.05;0.70;;;;;;;;;;4998034;28;20042;-67
2024/01/16 01:58:34;;;;;;;0.93;0.93;;;;;;;;;;4997988;28;20053;-66
2024/01/16 02:01:02;;;;;;;2.28;1.15;;;;;;;;;;4983174;28;20054;-66
2024/01/16 02:03:29;;;;;;;1.00;1.00;;;;;;;;;;4998195;28;20052;-66
2024/01/16 02:05:55;;;;;;;1.45;1.35;;;;;;;;;;4997808;28;20844;-66
2024/01/16 02:08:22;;;;;;;2.58;1.23;;;;;;;;;;4998333;28;20470;-67
2024/01/16 02:10:49;;;;;;;1.00;1.00;;;;;;;;;;4998592;28;20054;-66
2024/01/16 02:13:15;;;;;;;3.33;2.83;;;;;;;;;;4997308;28;20057;-66
2024/01/16 02:15:41;;;;;;;1.30;1.25;;;;;;;;;;4998031;28;20051;-66
2024/01/16 02:18:07;;;;;;;0.77;0.77;;;;;;;;;;4997335;28;20057;-66
2024/01/16 02:20:33;;;;;;;0.73;0.73;;;;;;;;;;4980581;28;20052;-66
2024/01/16 02:23:02;;;;;;;0.88;0.88;;;;;;;;;;4997908;28;20414;-66
2024/01/16 02:25:29;;;;;;;2.08;1.20;;;;;;;;;;4997932;28;20042;-66
2024/01/16 02:27:54;;;;;;;0.85;0.82;;;;;;;;;;4997154;28;20141;-66
2024/01/16 02:30:20;;;;;;;0.93;0.82;;;;;;;;;;4997471;28;20046;-66
2024/01/16 02:32:45;;;;;;;0.80;0.80;;;;;;;;;;4997591;28;20060;-66
2024/01/16 02:35:11;;;;;;;0.85;0.85;;;;;;;;;;4997428;28;20050;-68
2024/01/16 02:37:36;;;;;;;1.50;1.20;;;;;;;;;;4996983;28;20123;-68
2024/01/16 02:40:05;;;;;;;1.40;1.30;;;;;;;;;;4997129;28;20049;-68
2024/01/16 02:42:32;;;;;;;2.55;1.25;;;;;;;;;;4981346;28;20046;-65
2024/01/16 02:44:57;;;;;;;4.22;1.45;;;;;;;;;;4997955;28;20128;-65
2024/01/16 02:47:23;;;;;;;1.35;1.25;;;;;;;;;;4996857;28;20213;-65
2024/01/16 02:49:48;;;;;;;1.30;1.20;;;;;;;;;;4996618;28;20131;-65
2024/01/16 02:52:13;;;;;;;0.80;0.80;;;;;;;;;;4996950;28;20156;-65
2024/01/16 02:54:39;;;;;;;1.90;1.10;;;;;;;;;;4996857;28;20514;-67
2024/01/16 02:57:05;;;;;;;1.52;1.38;;;;;;;;;;4980859;28;20042;-67
2024/01/16 02:59:31;;;;;;;1.33;1.23;;;;;;;;;;4980031;28;20041;-66
2024/01/16 03:01:56;;;;;;;1.60;1.50;;;;;;;;;;4996699;28;20511;-67
2024/01/16 03:04:22;;;;;;;1.58;1.30;;;;;;;;;;4980610;28;20088;-67
2024/01/16 03:06:47;;;;;;;1.75;0.90;;;;;;;;;;4997570;28;20057;-67
2024/01/16 03:09:13;;;;;;;1.52;1.42;;;;;;;;;;4981632;28;20049;-67
2024/01/16 03:11:38;;;;;;;1.33;1.23;;;;;;;;;;4996085;28;20049;-66
2024/01/16 03:14:05;;;;;;;0.98;0.98;;;;;;;;;;4996463;28;20050;-67
2024/01/16 03:16:31;;;;;;;2.35;1.20;;;;;;;;;;4996967;28;20054;-66
2024/01/16 03:18:57;;;;;;;1.20;1.20;;;;;;;;;;4996595;28;20041;-66
2024/01/16 03:21:22;;;;;;;1.35;1.00;;;;;;;;;;4978474;28;20489;-66
2024/01/16 03:23:48;;;;;;;1.20;1.10;;;;;;;;;;4996606;28;20054;-66
2024/01/16 03:26:14;;;;;;;1.52;1.42;;;;;;;;;;4997042;28;20149;-66
2024/01/16 03:28:40;;;;;;;2.90;1.67;;;;;;;;;;4996173;28;20458;-66
2024/01/16 03:31:06;;;;;;;1.70;1.60;;;;;;;;;;4995919;28;20057;-66
2024/01/16 03:33:31;;;;;;;2.50;1.65;;;;;;;;;;4978878;28;20062;-66
2024/01/16 03:35:56;;;;;;;2.55;1.52;;;;;;;;;;4996427;28;20057;-67
2024/01/16 03:38:22;;;;;;;1.40;1.30;;;;;;;;;;4996084;28;20045;-67
2024/01/16 03:40:47;;;;;;;1.75;1.65;;;;;;;;;;4996782;28;20129;-67
2024/01/16 03:43:13;;;;;;;1.50;1.40;;;;;;;;;;4996574;28;20117;-67
2024/01/16 03:45:39;;;;;;;1.75;1.65;;;;;;;;;;4996060;28;20619;-67
2024/01/16 03:48:05;;;;;;;2.78;1.30;;;;;;;;;;4996610;28;20491;-66
2024/01/16 03:50:30;;;;;;;6.38;1.67;;;;;;;;;;4996362;28;20042;-66
2024/01/16 03:52:55;;;;;;;4.50;1.67;;;;;;;;;;4996769;28;20444;-66
2024/01/16 03:55:21;;;;;;;8.88;1.80;;;;;;;;;;4995245;28;20042;-66
2024/01/16 03:57:46;;;;;;;1.27;1.17;;;;;;;;;;4996031;28;20562;-67
2024/01/16 04:00:12;;;;;;;1.75;1.30;;;;;;;;;;4996387;28;20056;-66
2024/01/16 04:02:38;;;;;;;1.50;1.40;;;;;;;;;;4978121;28;20595;-68
2024/01/16 04:05:05;;;;;;;1.90;1.80;;;;;;;;;;4996646;28;20909;-69
2024/01/16 04:07:30;;;;;;;1.98;1.75;;;;;;;;;;4995218;28;20053;-66
2024/01/16 04:09:56;;;;;;;1.80;1.30;;;;;;;;;;4995421;28;20041;-67
2024/01/16 04:12:21;;;;;;;2.72;1.75;;;;;;;;;;4994572;28;20050;-67
2024/01/16 04:14:47;;;;;;;1.65;1.38;;;;;;;;;;4995859;28;20149;-67
2024/01/16 04:17:12;;;;;;;2.97;1.45;;;;;;;;;;4995420;28;20049;-67
2024/01/16 04:19:39;;;;;;;2.30;1.70;;;;;;;;;;4979737;28;20054;-66
2024/01/16 04:22:05;;;;;;;1.45;1.35;;;;;;;;;;4995884;28;20128;-67
2024/01/16 04:24:30;;;;;;;1.63;1.52;;;;;;;;;;4995642;28;20384;-67
2024/01/16 04:26:57;;;;;;;4.03;1.63;;;;;;;;;;4980735;28;20052;-67
2024/01/16 04:29:22;;;;;;;1.92;1.83;;;;;;;;;;4979073;28;20045;-67
2024/01/16 04:31:48;;;;;;;3.63;2.03;;;;;;;;;;4977969;28;20069;-67
2024/01/16 04:34:13;;;;;;;1.33;1.23;;;;;;;;;;4995819;28;20057;-66
2024/01/16 04:36:39;;;;;;;13.45;1.88;;;;;;;;;;4995512;28;20601;-67
2024/01/16 04:39:04;;;;;;;1.88;1.10;;;;;;;;;;4995027;28;20045;-67
2024/01/16 04:41:30;;;;;;;1.33;1.25;;;;;;;;;;4995199;28;20093;-67
2024/01/16 04:43:55;;;;;;;1.02;1.02;;;;;;;;;;4978199;28;20307;-67
2024/01/16 04:46:20;;;;;;;3.25;1.73;;;;;;;;;;4991273;28;20060;-67
2024/01/16 04:48:46;;;;;;;3.45;1.50;;;;;;;;;;4993989;28;20042;-67
2024/01/16 04:51:11;;;;;;;2.30;1.77;;;;;;;;;;4995961;28;20157;-66
2024/01/16 04:53:37;;;;;;;3.13;1.92;;;;;;;;;;4995663;28;20053;-66
2024/01/16 04:56:02;;;;;;;2.17;1.98;;;;;;;;;;4995654;28;20049;-66
2024/01/16 04:58:28;;;;;;;3.20;2.47;;;;;;;;;;4998126;28;20042;-67
2024/01/16 05:00:53;;;;;;;6.55;1.70;;;;;;;;;;4979912;28;20135;-68
2024/01/16 05:03:18;;;;;;;2.15;1.88;;;;;;;;;;4999286;28;20482;-68
2024/01/16 05:05:44;;;;;;;1.48;1.38;;;;;;;;;;4998637;28;20100;-67
2024/01/16 05:08:09;;;;;;;2.38;2.00;;;;;;;;;;4996467;28;20078;-67
2024/01/16 05:10:35;;;;;;;1.90;1.73;;;;;;;;;;4998041;28;20064;-67
2024/01/16 05:13:00;;;;;;;2.03;1.83;;;;;;;;;;4997224;28;20049;-67
2024/01/16 05:15:26;;;;;;;4.32;2.25;;;;;;;;;;4997245;28;20034;-68
2024/01/16 05:17:53;;;;;;;2.47;2.28;;;;;;;;;;4997584;28;20434;-68
2024/01/16 05:20:18;;;;;;;3.10;2.13;;;;;;;;;;4996882;28;20046;-68
2024/01/16 05:22:44;;;;;;;5.13;3.17;;;;;;;;;;4996887;28;20112;-68
2024/01/16 05:25:10;;;;;;;2.15;2.00;;;;;;;;;;4982122;28;20037;-68
2024/01/16 05:27:35;;;;;;;3.17;2.25;;;;;;;;;;4996650;28;20050;-67
2024/01/16 05:30:01;;;;;;;1.73;1.63;;;;;;;;;;4996074;28;21295;-68
2024/01/16 05:32:26;;;;;;;2.25;2.03;;;;;;;;;;4996775;28;20120;-68
2024/01/16 05:34:52;;;;;;;2.40;2.17;;;;;;;;;;4995954;28;20049;-68
2024/01/16 05:37:19;;;;;;;3.47;2.80;;;;;;;;;;4998109;28;20057;-67
2024/01/16 05:39:44;;;;;;;4.82;2.20;;;;;;;;;;4993472;28;20050;-67
2024/01/16 05:42:11;;;;;;;1.98;1.88;;;;;;;;;;4996289;28;20474;-67
2024/01/16 05:44:36;;;;;;;6.35;2.65;;;;;;;;;;4996672;28;20045;-67
2024/01/16 05:47:02;;;;;;;3.50;2.13;;;;;;;;;;4997975;28;20053;-67
2024/01/16 05:49:27;;;;;;;2.80;2.00;;;;;;;;;;4996421;28;20384;-69
2024/01/16 05:51:53;;;;;;;0.82;0.82;;;;;;;;;;4996637;28;20956;-68
2024/01/16 05:54:18;;;;;;;5.43;3.00;;;;;;;;;;4997813;28;20054;-67
2024/01/16 05:56:43;;;;;;;2.47;2.28;;;;;;;;;;4996161;28;20038;-68
2024/01/16 05:59:09;;;;;;;2.20;1.98;;;;;;;;;;4996648;28;20754;-69
2024/01/16 06:01:34;;;;;;;4.00;2.85;;;;;;;;;;4994438;28;20145;-67
2024/01/16 06:04:00;;;;;;;1.58;1.48;;;;;;;;;;4979155;28;20517;-68
2024/01/16 06:06:26;;;;;;;3.22;2.90;;;;;;;;;;4996719;28;20141;-69
2024/01/16 06:08:52;;;;;;;4.88;2.58;;;;;;;;;;4996615;28;20164;-67
2024/01/16 06:11:18;;;;;;;3.33;2.03;;;;;;;;;;4998099;28;20056;-67
2024/01/16 06:13:43;;;;;;;2.65;2.28;;;;;;;;;;4974490;28;20061;-68
2024/01/16 06:16:09;;;;;;;6.05;2.63;;;;;;;;;;4995187;28;20065;-68
2024/01/16 06:18:35;;;;;;;2.15;1.95;;;;;;;;;;4977730;28;20042;-69
2024/01/16 06:21:01;;;;;;;1.88;1.77;;;;;;;;;;4995176;28;20491;-68
2024/01/16 06:23:27;;;;;;;2.70;2.50;;;;;;;;;;4996209;28;20561;-67
2024/01/16 06:25:52;;;;;;;4.75;2.25;;;;;;;;;;4993596;28;20041;-67
2024/01/16 06:28:17;;;;;;;2.67;2.05;;;;;;;;;;4994207;28;20129;-67
2024/01/16 06:30:43;;;;;;;4.50;3.58;;;;;;;;;;4994884;28;20065;-67
2024/01/16 06:33:08;;;;;;;2.72;2.53;;;;;;;;;;4996403;28;20046;-67
2024/01/16 06:35:34;;;;;;;4.63;3.08;;;;;;;;;;4994218;28;20038;-68
2024/01/16 06:37:59;;;;;;;4.93;2.75;;;;;;;;;;4995033;28;20159;-68
2024/01/16 06:40:24;;;;;;;5.10;3.10;;;;;;;;;;4994048;28;20537;-67
2024/01/16 06:42:50;;;;;;;2.83;2.30;;;;;;;;;;4994159;28;20049;-68
2024/01/16 06:45:15;;;;;;;4.07;2.50;;;;;;;;;;4977226;28;20144;-67
2024/01/16 06:47:41;;;;;;;8.80;2.33;;;;;;;;;;4992813;28;20045;-68
2024/01/16 06:50:07;;;;;;;3.97;2.45;;;;;;;;;;4995083;28;21060;-68
2024/01/16 06:52:33;;;;;;;3.80;2.13;;;;;;;;;;4996111;28;20056;-68
2024/01/16 06:54:58;;;;;;;4.45;2.72;;;;;;;;;;4991539;28;20221;-67
2024/01/16 06:57:24;;;;;;;11.27;3.13;;;;;;;;;;4994059;28;20046;-67
2024/01/16 06:59:49;;;;;;;3.90;2.72;;;;;;;;;;4978660;28;20217;-68
2024/01/16 07:02:14;;;;;;;3.92;2.72;;;;;;;;;;4995174;28;20060;-67
2024/01/16 07:04:40;;;;;;;5.43;3.22;;;;;;;;;;4979761;28;20049;-67
2024/01/16 07:07:05;;;;;;;5.43;3.75;;;;;;;;;;4996332;28;20412;-68
2024/01/16 07:09:31;;;;;;;4.70;2.92;;;;;;;;;;4996010;28;20048;-68
2024/01/16 07:11:56;;;;;;;5.38;3.15;;;;;;;;;;4995216;28;20487;-67
2024/01/16 07:14:22;;;;;;;5.72;2.90;;;;;;;;;;4996814;28;20050;-67
2024/01/16 07:16:47;;;;;;;4.53;3.47;;;;;;;;;;4996023;28;20096;-68
2024/01/16 07:19:12;;;;;;;5.25;3.03;;;;;;;;;;4996501;28;20585;-67
2024/01/16 07:21:38;;;;;;;8.60;4.18;;;;;;;;;;4995649;28;20045;-68
2024/01/16 07:24:05;;;;;;;3.85;3.38;;;;;;;;;;4990192;28;20742;-68
2024/01/16 07:26:30;;;;;;;6.65;3.50;;;;;;;;;;4993770;28;20061;-68
2024/01/16 07:28:56;;;;;;;5.65;3.33;;;;;;;;;;4992476;28;20052;-68
2024/01/16 07:31:21;;;;;;;6.75;4.13;;;;;;;;;;4978211;28;20046;-68
2024/01/16 07:33:46;;;;;;;5.78;3.95;;;;;;;;;;4992229;28;20117;-68
2024/01/16 07:36:14;;;;;;;4.93;3.08;;;;;;;;;;4992477;28;20136;-68
2024/01/16 07:38:39;;;;;;;4.18;3.20;;;;;;;;;;4993673;28;21093;-68
2024/01/16 07:41:05;;;;;;;4.88;3.42;;;;;;;;;;4995415;28;20087;-67
2024/01/16 07:43:31;;;;;;;8.05;3.90;;;;;;;;;;4995838;28;20046;-67
2024/01/16 07:45:56;;;;;;;4.53;3.00;;;;;;;;;;4992532;28;20054;-70
2024/01/16 07:48:22;;;;;;;7.90;3.95;;;;;;;;;;4994783;28;20056;-67
2024/01/16 07:50:48;;;;;;;6.18;4.15;;;;;;;;;;4994329;28;20507;-67
2024/01/16 07:53:15;;;;;;;4.65;3.42;;;;;;;;;;4976640;28;20069;-67
2024/01/16 07:55:41;;;;;;;8.18;4.07;;;;;;;;;;4993842;28;20042;-67
2024/01/16 07:58:06;;;;;;;8.70;4.00;;;;;;;;;;4993160;28;20056;-67
2024/01/16 08:00:32;;;;;;;5.30;3.13;;;;;;;;;;4994452;28;20041;-67
2024/01/16 08:02:57;;;;;;;7.03;4.38;;;;;;;;;;4993044;28;20157;-67
2024/01/16 08:05:25;;;;;;;7.60;3.88;;;;;;;;;;4995552;28;20498;-67
2024/01/16 08:07:51;;;;;;;6.95;4.10;;;;;;;;;;4973634;28;20069;-68
2024/01/16 08:10:17;;;;;;;3.63;3.15;;;;;;;;;;4994891;28;20129;-68
2024/01/16 08:12:43;;;;;;;6.20;3.03;;;;;;;;;;4993203;28;20128;-68
2024/01/16 08:15:08;;;;;;;4.10;3.25;;;;;;;;;;4993373;28;20046;-68
2024/01/16 08:17:34;;;;;;;4.15;3.17;;;;;;;;;;4993436;28;20108;-68
2024/01/16 08:19:59;;;;;;;3.00;2.22;;;;;;;;;;4989756;28;20041;-68
2024/01/16 08:22:25;;;;;;;7.05;2.90;;;;;;;;;;4993226;28;20042;-67
2024/01/16 08:24:50;;;;;;;2.65;2.38;;;;;;;;;;4992590;28;20046;-68
2024/01/16 08:27:16;;;;;;;3.78;2.67;;;;;;;;;;4992623;28;20885;-67
2024/01/16 08:29:42;;;;;;;3.42;2.60;;;;;;;;;;4973989;28;20046;-67
2024/01/16 08:32:08;;;;;;;3.55;3.03;;;;;;;;;;4995306;28;20042;-68
2024/01/16 08:34:33;;;;;;;4.20;2.67;;;;;;;;;;4998157;28;20755;-68
2024/01/16 08:36:59;;;;;;;4.43;2.75;;;;;;;;;;4997692;28;20977;-68
2024/01/16 08:39:24;;;;;;;4.15;3.13;;;;;;;;;;4998024;28;20164;-68
2024/01/16 08:41:50;;;;;;;4.18;3.28;;;;;;;;;;4995746;28;20060;-69
2024/01/16 08:44:16;;;;;;;4.88;2.92;;;;;;;;;;4997908;28;20046;-68
2024/01/16 08:46:41;;;;;;;5.57;2.60;;;;;;;;;;4965421;28;20073;-68
2024/01/16 08:49:06;;;;;;;3.58;2.85;;;;;;;;;;4997042;28;20162;-68
2024/01/16 08:51:32;;;;;;;6.80;3.05;;;;;;;;;;4997292;28;20068;-67
2024/01/16 08:53:57;;;;;;;4.45;3.22;;;;;;;;;;4980753;28;20108;-68
2024/01/16 08:56:23;;;;;;;5.95;3.50;;;;;;;;;;4998142;28;20626;-68
2024/01/16 08:58:48;;;;;;;3.70;2.70;;;;;;;;;;4997762;28;20041;-68
2024/01/16 09:01:13;;;;;;;3.60;2.72;;;;;;;;;;4996248;28;20045;-68
2024/01/16 09:03:39;;;;;;;5.72;3.15;;;;;;;;;;4978958;28;20108;-68
2024/01/16 09:06:04;;;;;;;4.63;2.85;;;;;;;;;;4994568;28;20452;-68
2024/01/16 09:08:30;;;;;;;3.33;2.20;;;;;;;;;;4982555;28;20057;-68
2024/01/16 09:10:56;;;;;;;3.42;2.53;;;;;;;;;;4997212;28;20050;-69
2024/01/16 09:13:23;;;;;;;6.70;2.35;;;;;;;;;;4995988;28;20592;-68
2024/01/16 09:15:49;;;;;;;3.42;2.47;;;;;;;;;;4997010;28;20506;-68
2024/01/16 09:18:15;;;;;;;7.45;2.95;;;;;;;;;;4995647;28;21016;-69
2024/01/16 09:20:41;;;;;;;4.35;2.70;;;;;;;;;;4997563;28;20061;-69
2024/01/16 09:23:07;;;;;;;6.20;2.67;;;;;;;;;;4996890;28;20042;-68
2024/01/16 09:25:32;;;;;;;2.63;2.13;;;;;;;;;;4998105;28;20050;-68
2024/01/16 09:27:57;;;;;;;2.78;2.10;;;;;;;;;;4994099;28;20056;-69
2024/01/16 09:30:23;;;;;;;3.60;2.30;;;;;;;;;;4995462;28;20514;-69
2024/01/16 09:32:48;;;;;;;4.00;3.05;;;;;;;;;;4993839;28;20074;-69
2024/01/16 09:35:14;;;;;;;3.83;2.58;;;;;;;;;;4977800;28;20046;-69
2024/01/16 09:37:40;;;;;;;4.20;2.55;;;;;;;;;;4994873;28;20608;-69
2024/01/16 09:40:06;;;;;;;3.58;1.92;;;;;;;;;;4994338;28;20099;-69
2024/01/16 09:42:31;;;;;;;4.60;2.88;;;;;;;;;;4995399;28;20085;-70
2024/01/16 09:44:57;;;;;;;3.00;2.30;;;;;;;;;;4996042;28;21060;-69
2024/01/16 09:47:24;;;;;;;2.83;2.10;;;;;;;;;;4996748;28;20103;-69
2024/01/16 09:49:50;;;;;;;5.22;2.83;;;;;;;;;;4993807;28;20042;-70
2024/01/16 09:52:15;;;;;;;3.13;2.50;;;;;;;;;;4997086;28;20704;-69
2024/01/16 09:54:40;;;;;;;3.63;2.40;;;;;;;;;;4996215;28;20070;-69
2024/01/16 09:57:07;;;;;;;4.80;2.53;;;;;;;;;;4996257;28;20050;-70
2024/01/16 09:59:35;;;;;;;5.00;2.95;;;;;;;;;;4996124;28;20056;-70
2024/01/16 10:02:05;;;;;;;3.58;2.65;;;;;;;;;;4995429;28;20045;-69
2024/01/16 10:04:31;;;;;;;4.78;2.60;;;;;;;;;;4996696;28;20462;-68
2024/01/16 10:06:58;;;;;;;4.68;2.92;;;;;;;;;;4994150;28;20856;-69
2024/01/16 10:09:23;;;;;;;5.63;2.88;;;;;;;;;;4994657;28;20053;-68
2024/01/16 10:11:50;;;;;;;3.97;2.50;;;;;;;;;;4979253;28;20070;-69
2024/01/16 10:14:17;;;;;;;5.38;2.50;;;;;;;;;;4997444;28;20042;-69
2024/01/16 10:16:59;;;;;;;2.58;2.22;;;;;;;;;;4997864;28;20137;-70
2024/01/16 10:19:27;;;;;;;3.67;2.65;;;;;;;;;;4997444;28;20045;-69
2024/01/16 10:22:00;;;;;;;3.00;2.38;;;;;;;;;;4981104;28;20054;-70
2024/01/16 10:24:26;;;;;;;4.05;3.00;;;;;;;;;;4997818;28;20119;-69
2024/01/16 10:27:00;;;;;;;4.68;2.85;;;;;;;;;;4997021;28;20453;-69
2024/01/16 10:29:25;;;;;;;3.63;2.28;;;;;;;;;;4997243;28;20052;-69
2024/01/16 10:31:50;;;;;;;2.97;2.47;;;;;;;;;;4995830;28;20046;-70
2024/01/16 10:34:21;;;;;;;3.17;2.20;;;;;;;;;;4996721;28;20049;-69
2024/01/16 10:36:47;;;;;;;3.65;2.20;;;;;;;;;;4997847;28;20057;-69
2024/01/16 10:39:13;;;;;;;3.45;2.50;;;;;;;;;;4997204;28;20046;-69
2024/01/16 10:41:39;;;;;;;4.07;2.90;;;;;;;;;;4997336;28;20046;-70
2024/01/16 10:44:09;;;;;;;6.63;2.60;;;;;;;;;;4995341;28;20380;-69
2024/01/16 10:46:36;;;;;;;3.95;2.55;;;;;;;;;;4996946;28;20120;-70
2024/01/16 10:49:04;;;;;;;6.03;2.50;;;;;;;;;;4978689;28;20046;-70
2024/01/16 10:51:30;;;;;;;4.75;2.50;;;;;;;;;;4997692;28;20042;-69
2024/01/16 10:54:00;;;;;;;3.67;2.30;;;;;;;;;;4995248;28;20046;-70
2024/01/16 10:56:27;;;;;;;3.70;2.65;;;;;;;;;;4997709;28;20096;-70
2024/01/16 10:59:01;;;;;;;5.00;2.45;;;;;;;;;;4996753;28;20108;-70
2024/01/16 11:01:28;;;;;;;4.35;2.40;;;;;;;;;;4982564;28;20045;-69
2024/01/16 11:03:57;;;;;;;4.78;2.47;;;;;;;;;;4996392;28;20054;-69
2024/01/16 11:06:23;;;;;;;5.18;2.40;;;;;;;;;;4997426;28;20034;-69
2024/01/16 11:08:49;;;;;;;5.00;2.35;;;;;;;;;;4977782;28;20137;-70
2024/01/16 11:11:15;;;;;;;4.80;2.30;;;;;;;;;;4996003;28;20223;-70
2024/01/16 11:13:44;;;;;;;4.35;2.47;;;;;;;;;;4996725;28;20105;-70
2024/01/16 11:16:13;;;;;;;3.78;2.25;;;;;;;;;;4992869;28;20046;-70
2024/01/16 11:18:39;;;;;;;3.83;2.25;;;;;;;;;;4996554;28;20054;-69
2024/01/16 11:21:09;;;;;;;3.10;2.17;;;;;;;;;;4993984;28;20108;-69
2024/01/16 11:23:36;;;;;;;3.33;2.20;;;;;;;;;;4981115;28;20042;-69
2024/01/16 11:26:23;;;;;;;2.53;2.17;;;;;;;;;;4994836;28;20479;-69
2024/01/16 11:28:48;;;;;;;3.35;2.35;;;;;;;;;;4996675;28;20053;-70
2024/01/16 11:31:31;;;;;;;3.78;1.90;;;;;;;;;;4976750;28;20041;-69
2024/01/16 11:33:59;;;;;;;3.13;1.95;;;;;;;;;;4994615;28;20049;-71
2024/01/16 11:36:47;;;;;;;3.75;2.47;;;;;;;;;;4994281;28;20103;-70
2024/01/16 11:39:23;;;;;;;4.72;2.60;;;;;;;;;;4990292;28;20042;-71
2024/01/16 11:41:59;;;;;;;3.35;2.63;;;;;;;;;;4992559;28;20049;-70
2024/01/16 11:44:42;;;;;;;4.22;2.55;;;;;;;;;;4992820;28;20133;-70
2024/01/16 11:47:09;;;;;;;3.15;2.33;;;;;;;;;;4992521;28;20054;-71
2024/01/16 11:49:37;;;;;;;3.95;2.60;;;;;;;;;;4992406;28;20048;-69
2024/01/16 11:52:03;;;;;;;4.03;2.60;;;;;;;;;;4973434;28;20042;-70
2024/01/16 11:54:28;;;;;;;4.90;3.15;;;;;;;;;;4993264;28;20052;-69
2024/01/16 11:57:03;;;;;;;8.68;2.88;;;;;;;;;;4994220;28;20542;-70
2024/01/16 11:59:57;;;;;;;5.53;3.08;;;;;;;;;;4976013;28;20090;-71
2024/01/16 12:02:33;;;;;;;7.95;2.50;;;;;;;;;;4992670;28;20042;-71
2024/01/16 12:05:06;;;;;;;3.63;2.58;;;;;;;;;;4994538;28;20133;-71
2024/01/16 12:07:42;;;;;;;6.20;3.03;;;;;;;;;;4994368;28;20550;-71
2024/01/16 12:10:09;;;;;;;3.67;2.90;;;;;;;;;;4992118;28;20498;-71
2024/01/16 12:12:35;;;;;;;5.80;2.45;;;;;;;;;;4976349;28;20048;-72
2024/01/16 12:15:00;;;;;;;5.47;3.22;;;;;;;;;;4991768;28;20050;-71
2024/01/16 12:17:25;;;;;;;6.55;3.40;;;;;;;;;;4993794;28;20056;-71
2024/01/16 12:19:51;;;;;;;3.88;2.90;;;;;;;;;;4994312;28;20201;-72
2024/01/16 12:22:22;;;;;;;6.88;3.50;;;;;;;;;;4992899;28;20925;-72
2024/01/16 12:24:48;;;;;;;6.45;3.20;;;;;;;;;;4992234;28;20046;-69
2024/01/16 12:27:14;;;;;;;3.65;2.60;;;;;;;;;;4993980;28;20061;-71
2024/01/16 12:29:42;;;;;;;9.35;3.25;;;;;;;;;;4993797;28;20050;-71
2024/01/16 12:32:09;;;;;;;4.70;3.15;;;;;;;;;;4991213;28;20467;-70
2024/01/16 12:34:45;;;;;;;4.75;3.15;;;;;;;;;;4993240;28;20145;-70
2024/01/16 12:37:10;;;;;;;3.25;2.95;;;;;;;;;;4989129;28;20545;-69
2024/01/16 12:39:36;;;;;;;2.83;2.25;;;;;;;;;;4992756;28;20042;-69
2024/01/16 12:42:02;;;;;;;3.53;2.15;;;;;;;;;;4990877;28;20045;-70
2024/01/16 12:44:28;;;;;;;6.82;2.67;;;;;;;;;;4991498;28;20037;-69
2024/01/16 12:46:55;;;;;;;6.97;2.60;;;;;;;;;;4992649;28;20144;-69
2024/01/16 12:49:20;;;;;;;5.32;2.53;;;;;;;;;;4992136;28;20526;-70
2024/01/16 12:51:46;;;;;;;4.78;2.55;;;;;;;;;;4992453;28;20136;-70
2024/01/16 12:54:13;;;;;;;4.45;2.28;;;;;;;;;;4991615;28;20057;-70
2024/01/16 12:56:39;;;;;;;4.57;2.90;;;;;;;;;;4992782;28;20085;-70
2024/01/16 12:59:14;;;;;;;2.88;2.28;;;;;;;;;;4992603;28;20045;-70
2024/01/16 13:01:42;;;;;;;5.28;2.72;;;;;;;;;;4992894;28;20457;-69
2024/01/16 13:04:07;;;;;;;4.63;3.30;;;;;;;;;;4991135;28;20046;-70
2024/01/16 13:06:33;;;;;;;5.57;3.67;;;;;;;;;;4993188;28;20057;-69
2024/01/16 13:09:10;;;;;;;7.22;3.67;;;;;;;;;;4992812;28;20958;-70
2024/01/16 13:11:52;;;;;;;5.55;3.58;;;;;;;;;;4992447;28;20053;-70
2024/01/16 13:14:21;;;;;;;4.80;3.28;;;;;;;;;;4990839;28;20068;-71
2024/01/16 13:16:47;;;;;;;4.28;2.53;;;;;;;;;;4992865;28;20046;-72
2024/01/16 13:19:16;;;;;;;4.60;2.72;;;;;;;;;;4996948;28;20108;-72
2024/01/16 13:21:42;;;;;;;4.03;3.03;;;;;;;;;;4998117;28;20049;-72
2024/01/16 13:24:08;;;;;;;4.13;2.95;;;;;;;;;;4997450;28;20509;-71
2024/01/16 13:26:33;;;;;;;4.65;3.00;;;;;;;;;;4998666;28;20108;-71
2024/01/16 13:29:00;;;;;;;5.30;3.10;;;;;;;;;;4980819;28;20151;-71
2024/01/16 13:31:25;;;;;;;4.85;3.13;;;;;;;;;;4998166;28;20157;-71
2024/01/16 13:33:50;;;;;;;6.72;3.33;;;;;;;;;;4998100;28;20786;-70
2024/01/16 13:36:16;;;;;;;6.22;4.15;;;;;;;;;;4996465;28;20045;-71
2024/01/16 13:38:42;;;;;;;4.18;3.25;;;;;;;;;;4997565;28;20053;-71
2024/01/16 13:41:07;;;;;;;7.45;3.63;;;;;;;;;;4998397;28;20060;-70
2024/01/16 13:43:33;;;;;;;7.53;3.08;;;;;;;;;;4998574;28;20044;-69
2024/01/16 13:45:58;;;;;;;4.60;3.10;;;;;;;;;;4998043;28;20064;-71
2024/01/16 13:48:24;;;;;;;4.68;2.92;;;;;;;;;;4981946;28;20052;-71
2024/01/16 13:50:50;;;;;;;6.47;2.97;;;;;;;;;;4998329;28;20050;-71
2024/01/16 13:53:15;;;;;;;4.47;3.30;;;;;;;;;;4997513;28;20107;-71
2024/01/16 13:55:41;;;;;;;5.10;2.90;;;;;;;;;;4998523;28;20042;-70
2024/01/16 13:58:07;;;;;;;2.70;2.33;;;;;;;;;;4994708;28;20052;-70
2024/01/16 14:00:33;;;;;;;3.30;2.42;;;;;;;;;;4996711;28;20037;-70
2024/01/16 14:02:58;;;;;;;3.78;2.25;;;;;;;;;;4998694;28;20537;-70
2024/01/16 14:05:25;;;;;;;3.58;2.28;;;;;;;;;;4997155;28;20129;-70
2024/01/16 14:07:52;;;;;;;3.17;2.15;;;;;;;;;;4998403;28;20045;-69
2024/01/16 14:10:19;;;;;;;2.90;2.53;;;;;;;;;;4995832;28;20054;-69
2024/01/16 14:12:46;;;;;;;4.05;2.63;;;;;;;;;;4997958;28;20069;-70
2024/01/16 14:15:19;;;;;;;8.88;3.25;;;;;;;;;;4997986;28;20050;-69
2024/01/16 14:17:52;;;;;;;5.32;3.10;;;;;;;;;;4997927;28;20052;-70
2024/01/16 14:20:23;;;;;;;6.22;3.65;;;;;;;;;;4995854;28;20716;-69
2024/01/16 14:22:50;;;;;;;7.10;3.47;;;;;;;;;;4980586;28;20061;-69
2024/01/16 14:25:18;;;;;;;5.88;3.45;;;;;;;;;;4995849;28;20060;-69
2024/01/16 14:27:45;;;;;;;6.70;3.10;;;;;;;;;;4997657;28;20426;-69
2024/01/16 14:30:13;;;;;;;4.40;3.25;;;;;;;;;;4990355;28;20184;-70
2024/01/16 14:32:43;;;;;;;4.75;3.17;;;;;;;;;;4993229;28;20054;-70
2024/01/16 14:35:13;;;;;;;6.45;3.88;;;;;;;;;;4993306;28;20239;-70
2024/01/16 14:37:40;;;;;;;3.90;3.22;;;;;;;;;;4993293;28;20129;-70
2024/01/16 14:40:12;;;;;;;4.75;3.40;;;;;;;;;;4993980;28;20490;-69